sensor_id;sensor_type;location;lat;lon;timestamp;P1;durP1;ratioP1;P2;durP2;ratioP2
50433;SDS011;36361;38.954;-9.002;2023-02-01T00:00:13;8.47;;;5.80;;
50433;SDS011;36361;38.954;-9.002;2023-02-01T00:01:14;10.67;;;6.33;;
50433;SDS011;36361;38.954;-9.002;2023-02-01T00:02:14;11.17;;;7.17;;
50433;SDS011;36361;38.954;-9.002;2023-02-01T00:03:15;10.73;;;6.70;;
50433;SDS011;36361;38.954;-9.002;2023-02-01T00:04:19;9.60;;;6.43;;
50433;SDS011;36361;38.954;-9.002;2023-02-01T00:05:19;8.53;;;5.30;;
50433;SDS011;36361;38.954;-9.002;2023-02-01T00:06:20;11.50;;;6.90;;
50433;SDS011;36361;38.954;-9.002;2023-02-01T00:07:21;8.87;;;5.67;;
50433;SDS011;36361;38.954;-9.002;2023-02-01T00:08:21;12.60;;;7.33;;
50433;SDS011;36361;38.954;-9.002;2023-02-01T00:09:22;10.13;;;6.60;;
50433;SDS011;36361;38.954;-9.002;2023-02-01T00:10:23;10.20;;;6.73;;
50433;SDS011;36361;38.954;-9.002;2023-02-01T00:11:24;10.73;;;6.87;;
50433;SDS011;36361;38.954;-9.002;2023-02-01T00:12:24;8.83;;;4.83;;
50433;SDS011;36361;38.954;-9.002;2023-02-01T00:13:27;15.03;;;6.27;;
50433;SDS011;36361;38.954;-9.002;2023-02-01T00:14:28;10.63;;;7.07;;
50433;SDS011;36361;38.954;-9.002;2023-02-01T00:15:29;9.30;;;6.20;;
50433;SDS011;36361;38.954;-9.002;2023-02-01T00:16:30;9.93;;;7.17;;
50433;SDS011;36361;38.954;-9.002;2023-02-01T00:17:31;12.17;;;7.93;;
50433;SDS011;36361;38.954;-9.002;2023-02-01T00:18:32;11.13;;;7.50;;
50433;SDS011;36361;38.954;-9.002;2023-02-01T00:19:33;12.10;;;6.90;;
50433;SDS011;36361;38.954;-9.002;2023-02-01T00:20:34;13.53;;;8.40;;
50433;SDS011;36361;38.954;-9.002;2023-02-01T00:21:35;12.73;;;7.33;;
50433;SDS011;36361;38.954;-9.002;2023-02-01T00:22:36;12.83;;;7.70;;
50433;SDS011;36361;38.954;-9.002;2023-02-01T00:23:37;12.93;;;7.83;;
50433;SDS011;36361;38.954;-9.002;2023-02-01T00:24:39;12.63;;;8.17;;
50433;SDS011;36361;38.954;-9.002;2023-02-01T00:25:39;10.50;;;7.40;;
50433;SDS011;36361;38.954;-9.002;2023-02-01T00:26:41;13.90;;;8.03;;
50433;SDS011;36361;38.954;-9.002;2023-02-01T00:27:43;11.23;;;7.63;;
50433;SDS011;36361;38.954;-9.002;2023-02-01T00:28:48;13.00;;;7.90;;
50433;SDS011;36361;38.954;-9.002;2023-02-01T00:29:48;9.27;;;7.30;;
50433;SDS011;36361;38.954;-9.002;2023-02-01T00:30:55;15.93;;;8.10;;
50433;SDS011;36361;38.954;-9.002;2023-02-01T00:31:57;11.80;;;8.00;;
50433;SDS011;36361;38.954;-9.002;2023-02-01T00:32:57;10.13;;;8.00;;
50433;SDS011;36361;38.954;-9.002;2023-02-01T00:33:58;11.87;;;8.17;;
50433;SDS011;36361;38.954;-9.002;2023-02-01T00:34:59;12.03;;;8.53;;
50433;SDS011;36361;38.954;-9.002;2023-02-01T00:36:00;13.93;;;8.70;;
50433;SDS011;36361;38.954;-9.002;2023-02-01T00:37:03;11.63;;;8.00;;
50433;SDS011;36361;38.954;-9.002;2023-02-01T00:38:03;14.10;;;8.20;;
50433;SDS011;36361;38.954;-9.002;2023-02-01T00:39:04;13.30;;;8.67;;
50433;SDS011;36361;38.954;-9.002;2023-02-01T00:40:05;11.97;;;8.20;;
50433;SDS011;36361;38.954;-9.002;2023-02-01T00:41:10;11.30;;;7.60;;
50433;SDS011;36361;38.954;-9.002;2023-02-01T00:42:14;12.43;;;7.73;;
50433;SDS011;36361;38.954;-9.002;2023-02-01T00:43:15;16.77;;;8.90;;
50433;SDS011;36361;38.954;-9.002;2023-02-01T00:44:15;11.77;;;8.60;;
50433;SDS011;36361;38.954;-9.002;2023-02-01T00:45:16;12.57;;;8.97;;
50433;SDS011;36361;38.954;-9.002;2023-02-01T00:46:18;15.93;;;8.87;;
50433;SDS011;36361;38.954;-9.002;2023-02-01T00:47:19;13.47;;;8.43;;
50433;SDS011;36361;38.954;-9.002;2023-02-01T00:48:20;12.63;;;8.57;;
50433;SDS011;36361;38.954;-9.002;2023-02-01T00:49:20;15.37;;;8.57;;
50433;SDS011;36361;38.954;-9.002;2023-02-01T00:50:22;11.77;;;7.83;;
50433;SDS011;36361;38.954;-9.002;2023-02-01T00:51:27;14.63;;;8.20;;
50433;SDS011;36361;38.954;-9.002;2023-02-01T00:52:29;16.17;;;9.20;;
50433;SDS011;36361;38.954;-9.002;2023-02-01T00:53:30;14.97;;;8.73;;
50433;SDS011;36361;38.954;-9.002;2023-02-01T00:54:32;10.07;;;6.90;;
50433;SDS011;36361;38.954;-9.002;2023-02-01T00:55:34;9.40;;;7.23;;
50433;SDS011;36361;38.954;-9.002;2023-02-01T00:56:35;15.30;;;8.70;;
50433;SDS011;36361;38.954;-9.002;2023-02-01T00:57:35;10.70;;;7.60;;
50433;SDS011;36361;38.954;-9.002;2023-02-01T00:58:36;14.77;;;9.03;;
50433;SDS011;36361;38.954;-9.002;2023-02-01T00:59:37;12.53;;;9.13;;
50433;SDS011;36361;38.954;-9.002;2023-02-01T01:00:38;12.60;;;8.87;;
50433;SDS011;36361;38.954;-9.002;2023-02-01T01:01:38;14.23;;;9.23;;
50433;SDS011;36361;38.954;-9.002;2023-02-01T01:02:39;13.43;;;8.80;;
50433;SDS011;36361;38.954;-9.002;2023-02-01T01:03:41;12.43;;;8.50;;
50433;SDS011;36361;38.954;-9.002;2023-02-01T01:04:45;13.77;;;9.07;;
50433;SDS011;36361;38.954;-9.002;2023-02-01T01:05:46;14.30;;;9.20;;
50433;SDS011;36361;38.954;-9.002;2023-02-01T01:06:47;11.77;;;9.33;;
50433;SDS011;36361;38.954;-9.002;2023-02-01T01:07:48;15.17;;;9.17;;
50433;SDS011;36361;38.954;-9.002;2023-02-01T01:08:50;12.17;;;9.33;;
50433;SDS011;36361;38.954;-9.002;2023-02-01T01:09:52;13.33;;;9.50;;
50433;SDS011;36361;38.954;-9.002;2023-02-01T01:10:53;17.27;;;10.23;;
50433;SDS011;36361;38.954;-9.002;2023-02-01T01:11:53;14.57;;;9.43;;
50433;SDS011;36361;38.954;-9.002;2023-02-01T01:12:54;19.43;;;9.90;;
50433;SDS011;36361;38.954;-9.002;2023-02-01T01:13:55;16.50;;;9.43;;
50433;SDS011;36361;38.954;-9.002;2023-02-01T01:14:57;12.13;;;9.47;;
50433;SDS011;36361;38.954;-9.002;2023-02-01T01:15:59;14.47;;;9.20;;
50433;SDS011;36361;38.954;-9.002;2023-02-01T01:17:05;14.83;;;10.27;;
50433;SDS011;36361;38.954;-9.002;2023-02-01T01:18:06;19.30;;;10.27;;
50433;SDS011;36361;38.954;-9.002;2023-02-01T01:19:08;17.73;;;10.10;;
50433;SDS011;36361;38.954;-9.002;2023-02-01T01:20:09;13.17;;;9.33;;
50433;SDS011;36361;38.954;-9.002;2023-02-01T01:21:11;16.57;;;9.77;;
50433;SDS011;36361;38.954;-9.002;2023-02-01T01:22:13;13.50;;;9.43;;
50433;SDS011;36361;38.954;-9.002;2023-02-01T01:23:14;16.47;;;9.97;;
50433;SDS011;36361;38.954;-9.002;2023-02-01T01:24:15;13.43;;;10.13;;
50433;SDS011;36361;38.954;-9.002;2023-02-01T01:25:15;14.80;;;9.80;;
50433;SDS011;36361;38.954;-9.002;2023-02-01T01:26:20;14.40;;;9.83;;
50433;SDS011;36361;38.954;-9.002;2023-02-01T01:27:22;15.27;;;10.40;;
50433;SDS011;36361;38.954;-9.002;2023-02-01T01:28:25;16.70;;;10.43;;
50433;SDS011;36361;38.954;-9.002;2023-02-01T01:29:25;16.53;;;10.73;;
50433;SDS011;36361;38.954;-9.002;2023-02-01T01:30:26;13.13;;;9.70;;
50433;SDS011;36361;38.954;-9.002;2023-02-01T01:31:27;17.50;;;11.10;;
50433;SDS011;36361;38.954;-9.002;2023-02-01T01:32:28;18.23;;;10.57;;
50433;SDS011;36361;38.954;-9.002;2023-02-01T01:33:29;18.40;;;10.77;;
50433;SDS011;36361;38.954;-9.002;2023-02-01T01:34:29;16.13;;;10.80;;
50433;SDS011;36361;38.954;-9.002;2023-02-01T01:35:31;15.17;;;9.67;;
50433;SDS011;36361;38.954;-9.002;2023-02-01T01:36:32;13.57;;;10.23;;
50433;SDS011;36361;38.954;-9.002;2023-02-01T01:37:33;14.37;;;10.57;;
50433;SDS011;36361;38.954;-9.002;2023-02-01T01:38:35;14.40;;;9.97;;
50433;SDS011;36361;38.954;-9.002;2023-02-01T01:39:36;17.00;;;10.50;;
50433;SDS011;36361;38.954;-9.002;2023-02-01T01:40:37;18.47;;;11.27;;
50433;SDS011;36361;38.954;-9.002;2023-02-01T01:41:39;21.20;;;11.20;;
50433;SDS011;36361;38.954;-9.002;2023-02-01T01:43:02;14.80;;;10.43;;
50433;SDS011;36361;38.954;-9.002;2023-02-01T01:44:04;15.13;;;10.53;;
50433;SDS011;36361;38.954;-9.002;2023-02-01T01:45:08;15.17;;;10.23;;
50433;SDS011;36361;38.954;-9.002;2023-02-01T01:46:18;16.53;;;10.37;;
50433;SDS011;36361;38.954;-9.002;2023-02-01T01:47:20;17.53;;;11.60;;
50433;SDS011;36361;38.954;-9.002;2023-02-01T01:48:25;16.23;;;10.30;;
50433;SDS011;36361;38.954;-9.002;2023-02-01T01:49:29;14.82;;;9.90;;
50433;SDS011;36361;38.954;-9.002;2023-02-01T01:50:32;15.07;;;10.17;;
50433;SDS011;36361;38.954;-9.002;2023-02-01T01:51:47;14.53;;;10.40;;
50433;SDS011;36361;38.954;-9.002;2023-02-01T01:53:08;16.70;;;10.37;;
50433;SDS011;36361;38.954;-9.002;2023-02-01T01:55:22;14.55;;;9.23;;
50433;SDS011;36361;38.954;-9.002;2023-02-01T01:56:25;15.68;;;9.80;;
50433;SDS011;36361;38.954;-9.002;2023-02-01T01:57:32;13.38;;;9.95;;
50433;SDS011;36361;38.954;-9.002;2023-02-01T01:58:40;17.02;;;10.10;;
50433;SDS011;36361;38.954;-9.002;2023-02-01T01:59:41;16.70;;;10.07;;
50433;SDS011;36361;38.954;-9.002;2023-02-01T02:00:47;14.20;;;9.77;;
50433;SDS011;36361;38.954;-9.002;2023-02-01T02:01:48;16.42;;;10.85;;
50433;SDS011;36361;38.954;-9.002;2023-02-01T02:02:52;16.50;;;10.07;;
50433;SDS011;36361;38.954;-9.002;2023-02-01T02:03:57;15.75;;;10.63;;
50433;SDS011;36361;38.954;-9.002;2023-02-01T02:05:00;16.67;;;10.30;;
50433;SDS011;36361;38.954;-9.002;2023-02-01T02:06:01;16.02;;;10.18;;
50433;SDS011;36361;38.954;-9.002;2023-02-01T02:07:09;14.97;;;10.17;;
50433;SDS011;36361;38.954;-9.002;2023-02-01T02:08:14;14.90;;;9.93;;
50433;SDS011;36361;38.954;-9.002;2023-02-01T02:09:15;16.25;;;9.85;;
50433;SDS011;36361;38.954;-9.002;2023-02-01T02:10:16;17.37;;;11.00;;
50433;SDS011;36361;38.954;-9.002;2023-02-01T02:11:17;13.43;;;9.93;;
50433;SDS011;36361;38.954;-9.002;2023-02-01T02:12:18;13.63;;;10.33;;
50433;SDS011;36361;38.954;-9.002;2023-02-01T02:13:18;16.53;;;10.97;;
50433;SDS011;36361;38.954;-9.002;2023-02-01T02:14:20;14.23;;;10.23;;
50433;SDS011;36361;38.954;-9.002;2023-02-01T02:15:23;16.13;;;11.05;;
50433;SDS011;36361;38.954;-9.002;2023-02-01T02:18:58;18.20;;;11.70;;
50433;SDS011;36361;38.954;-9.002;2023-02-01T02:20:27;18.70;;;10.65;;
50433;SDS011;36361;38.954;-9.002;2023-02-01T02:25:56;14.10;;;9.98;;
50433;SDS011;36361;38.954;-9.002;2023-02-01T02:40:56;15.52;;;11.05;;
50433;SDS011;36361;38.954;-9.002;2023-02-01T02:42:12;17.95;;;11.13;;
50433;SDS011;36361;38.954;-9.002;2023-02-01T02:45:23;18.08;;;10.80;;
50433;SDS011;36361;38.954;-9.002;2023-02-01T02:46:49;14.07;;;10.20;;
50433;SDS011;36361;38.954;-9.002;2023-02-01T02:51:50;17.42;;;10.73;;
50433;SDS011;36361;38.954;-9.002;2023-02-01T02:54:59;16.52;;;10.98;;
50433;SDS011;36361;38.954;-9.002;2023-02-01T02:56:04;17.35;;;11.30;;
50433;SDS011;36361;38.954;-9.002;2023-02-01T02:58:53;15.90;;;10.57;;
50433;SDS011;36361;38.954;-9.002;2023-02-01T03:00:15;16.85;;;11.15;;
50433;SDS011;36361;38.954;-9.002;2023-02-01T03:01:38;15.38;;;11.63;;
50433;SDS011;36361;38.954;-9.002;2023-02-01T03:03:00;21.92;;;12.52;;
50433;SDS011;36361;38.954;-9.002;2023-02-01T03:04:20;18.00;;;11.77;;
50433;SDS011;36361;38.954;-9.002;2023-02-01T03:05:23;16.02;;;11.90;;
50433;SDS011;36361;38.954;-9.002;2023-02-01T03:06:24;19.65;;;12.00;;
50433;SDS011;36361;38.954;-9.002;2023-02-01T03:08:45;14.98;;;11.80;;
50433;SDS011;36361;38.954;-9.002;2023-02-01T03:09:46;17.08;;;11.40;;
50433;SDS011;36361;38.954;-9.002;2023-02-01T03:11:08;18.38;;;12.63;;
50433;SDS011;36361;38.954;-9.002;2023-02-01T03:12:11;19.60;;;12.10;;
50433;SDS011;36361;38.954;-9.002;2023-02-01T03:14:52;17.30;;;11.98;;
50433;SDS011;36361;38.954;-9.002;2023-02-01T03:17:03;17.00;;;12.50;;
50433;SDS011;36361;38.954;-9.002;2023-02-01T03:18:24;19.45;;;12.60;;
50433;SDS011;36361;38.954;-9.002;2023-02-01T03:19:33;18.75;;;12.50;;
50433;SDS011;36361;38.954;-9.002;2023-02-01T03:20:37;15.32;;;12.07;;
50433;SDS011;36361;38.954;-9.002;2023-02-01T03:21:43;18.83;;;12.52;;
50433;SDS011;36361;38.954;-9.002;2023-02-01T03:22:48;19.27;;;13.10;;
50433;SDS011;36361;38.954;-9.002;2023-02-01T03:23:52;21.40;;;12.77;;
50433;SDS011;36361;38.954;-9.002;2023-02-01T03:24:56;21.23;;;12.52;;
50433;SDS011;36361;38.954;-9.002;2023-02-01T03:26:03;16.45;;;12.05;;
50433;SDS011;36361;38.954;-9.002;2023-02-01T03:27:13;17.05;;;12.60;;
50433;SDS011;36361;38.954;-9.002;2023-02-01T03:28:18;19.45;;;13.27;;
50433;SDS011;36361;38.954;-9.002;2023-02-01T03:29:27;21.55;;;13.32;;
50433;SDS011;36361;38.954;-9.002;2023-02-01T03:30:40;19.27;;;13.32;;
50433;SDS011;36361;38.954;-9.002;2023-02-01T03:31:44;20.67;;;12.80;;
50433;SDS011;36361;38.954;-9.002;2023-02-01T03:32:45;23.10;;;13.40;;
50433;SDS011;36361;38.954;-9.002;2023-02-01T03:34:05;17.17;;;12.00;;
50433;SDS011;36361;38.954;-9.002;2023-02-01T03:35:06;21.40;;;13.27;;
50433;SDS011;36361;38.954;-9.002;2023-02-01T03:36:23;20.67;;;13.15;;
50433;SDS011;36361;38.954;-9.002;2023-02-01T03:37:31;20.08;;;12.52;;
50433;SDS011;36361;38.954;-9.002;2023-02-01T03:38:33;17.23;;;12.30;;
50433;SDS011;36361;38.954;-9.002;2023-02-01T03:39:48;19.55;;;13.07;;
50433;SDS011;36361;38.954;-9.002;2023-02-01T03:40:55;22.02;;;14.32;;
50433;SDS011;36361;38.954;-9.002;2023-02-01T03:42:04;16.60;;;12.20;;
50433;SDS011;36361;38.954;-9.002;2023-02-01T03:43:10;19.80;;;13.23;;
50433;SDS011;36361;38.954;-9.002;2023-02-01T03:44:16;18.20;;;12.60;;
50433;SDS011;36361;38.954;-9.002;2023-02-01T03:45:26;17.83;;;12.18;;
50433;SDS011;36361;38.954;-9.002;2023-02-01T03:46:47;22.20;;;12.93;;
50433;SDS011;36361;38.954;-9.002;2023-02-01T03:47:53;17.52;;;12.77;;
50433;SDS011;36361;38.954;-9.002;2023-02-01T03:48:59;16.75;;;12.63;;
50433;SDS011;36361;38.954;-9.002;2023-02-01T03:50:13;21.23;;;13.90;;
50433;SDS011;36361;38.954;-9.002;2023-02-01T03:51:20;20.58;;;13.18;;
50433;SDS011;36361;38.954;-9.002;2023-02-01T03:52:26;18.85;;;13.52;;
50433;SDS011;36361;38.954;-9.002;2023-02-01T03:53:33;19.50;;;13.38;;
50433;SDS011;36361;38.954;-9.002;2023-02-01T03:54:39;17.45;;;12.27;;
50433;SDS011;36361;38.954;-9.002;2023-02-01T03:55:41;18.50;;;13.02;;
50433;SDS011;36361;38.954;-9.002;2023-02-01T03:56:44;19.65;;;12.23;;
50433;SDS011;36361;38.954;-9.002;2023-02-01T03:57:51;18.58;;;13.18;;
50433;SDS011;36361;38.954;-9.002;2023-02-01T03:58:55;19.70;;;12.98;;
50433;SDS011;36361;38.954;-9.002;2023-02-01T04:00:09;16.08;;;12.50;;
50433;SDS011;36361;38.954;-9.002;2023-02-01T04:01:27;19.23;;;12.80;;
50433;SDS011;36361;38.954;-9.002;2023-02-01T04:02:30;18.45;;;12.57;;
50433;SDS011;36361;38.954;-9.002;2023-02-01T04:03:31;22.50;;;12.70;;
50433;SDS011;36361;38.954;-9.002;2023-02-01T04:04:33;17.02;;;12.63;;
50433;SDS011;36361;38.954;-9.002;2023-02-01T04:05:35;19.42;;;12.55;;
50433;SDS011;36361;38.954;-9.002;2023-02-01T04:06:38;16.65;;;12.30;;
50433;SDS011;36361;38.954;-9.002;2023-02-01T04:07:39;15.27;;;12.50;;
50433;SDS011;36361;38.954;-9.002;2023-02-01T04:08:40;16.17;;;11.87;;
50433;SDS011;36361;38.954;-9.002;2023-02-01T04:09:41;19.33;;;13.70;;
50433;SDS011;36361;38.954;-9.002;2023-02-01T04:10:42;17.20;;;12.90;;
50433;SDS011;36361;38.954;-9.002;2023-02-01T04:11:43;18.63;;;13.43;;
50433;SDS011;36361;38.954;-9.002;2023-02-01T04:12:44;19.70;;;14.13;;
50433;SDS011;36361;38.954;-9.002;2023-02-01T04:13:44;18.33;;;13.33;;
50433;SDS011;36361;38.954;-9.002;2023-02-01T04:14:45;17.67;;;12.53;;
50433;SDS011;36361;38.954;-9.002;2023-02-01T04:15:46;21.93;;;13.80;;
50433;SDS011;36361;38.954;-9.002;2023-02-01T04:16:50;18.63;;;12.90;;
50433;SDS011;36361;38.954;-9.002;2023-02-01T04:17:50;20.93;;;13.43;;
50433;SDS011;36361;38.954;-9.002;2023-02-01T04:18:52;19.25;;;12.23;;
50433;SDS011;36361;38.954;-9.002;2023-02-01T04:19:55;20.52;;;13.35;;
50433;SDS011;36361;38.954;-9.002;2023-02-01T04:20:57;19.23;;;13.30;;
50433;SDS011;36361;38.954;-9.002;2023-02-01T04:21:58;20.83;;;12.15;;
50433;SDS011;36361;38.954;-9.002;2023-02-01T04:23:00;20.10;;;12.55;;
50433;SDS011;36361;38.954;-9.002;2023-02-01T04:24:03;18.55;;;13.00;;
50433;SDS011;36361;38.954;-9.002;2023-02-01T04:25:05;19.42;;;12.98;;
50433;SDS011;36361;38.954;-9.002;2023-02-01T04:26:06;16.77;;;13.27;;
50433;SDS011;36361;38.954;-9.002;2023-02-01T04:27:08;17.80;;;12.02;;
50433;SDS011;36361;38.954;-9.002;2023-02-01T04:28:09;17.67;;;11.82;;
50433;SDS011;36361;38.954;-9.002;2023-02-01T04:29:10;19.63;;;12.38;;
50433;SDS011;36361;38.954;-9.002;2023-02-01T04:30:12;18.88;;;12.68;;
50433;SDS011;36361;38.954;-9.002;2023-02-01T04:31:14;17.77;;;12.13;;
50433;SDS011;36361;38.954;-9.002;2023-02-01T04:32:16;20.05;;;13.55;;
50433;SDS011;36361;38.954;-9.002;2023-02-01T04:33:18;18.77;;;12.90;;
50433;SDS011;36361;38.954;-9.002;2023-02-01T04:34:19;20.58;;;12.35;;
50433;SDS011;36361;38.954;-9.002;2023-02-01T04:35:22;17.83;;;12.25;;
50433;SDS011;36361;38.954;-9.002;2023-02-01T04:36:24;20.42;;;13.02;;
50433;SDS011;36361;38.954;-9.002;2023-02-01T04:37:25;17.70;;;12.70;;
50433;SDS011;36361;38.954;-9.002;2023-02-01T04:38:29;18.95;;;12.95;;
50433;SDS011;36361;38.954;-9.002;2023-02-01T04:39:33;16.77;;;11.57;;
50433;SDS011;36361;38.954;-9.002;2023-02-01T04:40:37;18.52;;;12.70;;
50433;SDS011;36361;38.954;-9.002;2023-02-01T04:41:41;21.67;;;11.88;;
50433;SDS011;36361;38.954;-9.002;2023-02-01T04:42:45;17.67;;;12.40;;
50433;SDS011;36361;38.954;-9.002;2023-02-01T04:43:46;17.17;;;12.55;;
50433;SDS011;36361;38.954;-9.002;2023-02-01T04:44:48;19.88;;;12.65;;
50433;SDS011;36361;38.954;-9.002;2023-02-01T04:45:51;20.00;;;12.93;;
50433;SDS011;36361;38.954;-9.002;2023-02-01T04:46:56;19.88;;;13.80;;
50433;SDS011;36361;38.954;-9.002;2023-02-01T04:47:57;18.23;;;13.15;;
50433;SDS011;36361;38.954;-9.002;2023-02-01T04:48:58;19.90;;;13.00;;
50433;SDS011;36361;38.954;-9.002;2023-02-01T04:50:00;17.98;;;12.75;;
50433;SDS011;36361;38.954;-9.002;2023-02-01T04:51:01;18.42;;;13.15;;
50433;SDS011;36361;38.954;-9.002;2023-02-01T04:52:03;19.40;;;13.10;;
50433;SDS011;36361;38.954;-9.002;2023-02-01T04:53:04;17.65;;;12.95;;
50433;SDS011;36361;38.954;-9.002;2023-02-01T04:54:06;18.15;;;13.55;;
50433;SDS011;36361;38.954;-9.002;2023-02-01T04:55:08;22.63;;;12.82;;
50433;SDS011;36361;38.954;-9.002;2023-02-01T04:56:09;18.48;;;13.15;;
50433;SDS011;36361;38.954;-9.002;2023-02-01T04:57:11;19.55;;;13.10;;
50433;SDS011;36361;38.954;-9.002;2023-02-01T04:58:13;18.25;;;12.95;;
50433;SDS011;36361;38.954;-9.002;2023-02-01T04:59:15;19.00;;;12.80;;
50433;SDS011;36361;38.954;-9.002;2023-02-01T05:00:17;15.35;;;11.55;;
50433;SDS011;36361;38.954;-9.002;2023-02-01T05:01:19;17.92;;;13.02;;
50433;SDS011;36361;38.954;-9.002;2023-02-01T05:02:20;19.88;;;12.55;;
50433;SDS011;36361;38.954;-9.002;2023-02-01T05:03:21;20.15;;;12.57;;
50433;SDS011;36361;38.954;-9.002;2023-02-01T05:04:23;20.42;;;13.02;;
50433;SDS011;36361;38.954;-9.002;2023-02-01T05:05:25;16.77;;;12.70;;
50433;SDS011;36361;38.954;-9.002;2023-02-01T05:06:28;16.92;;;12.25;;
50433;SDS011;36361;38.954;-9.002;2023-02-01T05:07:29;19.15;;;13.35;;
50433;SDS011;36361;38.954;-9.002;2023-02-01T05:08:31;17.73;;;13.00;;
50433;SDS011;36361;38.954;-9.002;2023-02-01T05:09:35;20.00;;;14.27;;
50433;SDS011;36361;38.954;-9.002;2023-02-01T05:10:37;17.58;;;12.18;;
50433;SDS011;36361;38.954;-9.002;2023-02-01T05:11:39;17.40;;;12.45;;
50433;SDS011;36361;38.954;-9.002;2023-02-01T05:13:03;21.63;;;12.60;;
50433;SDS011;36361;38.954;-9.002;2023-02-01T05:14:23;20.23;;;12.65;;
50433;SDS011;36361;38.954;-9.002;2023-02-01T05:15:25;20.10;;;12.75;;
50433;SDS011;36361;38.954;-9.002;2023-02-01T05:16:26;21.38;;;13.13;;
50433;SDS011;36361;38.954;-9.002;2023-02-01T05:17:28;21.05;;;12.77;;
50433;SDS011;36361;38.954;-9.002;2023-02-01T05:18:29;16.80;;;11.27;;
50433;SDS011;36361;38.954;-9.002;2023-02-01T05:19:33;19.33;;;13.35;;
50433;SDS011;36361;38.954;-9.002;2023-02-01T05:20:34;17.67;;;11.85;;
50433;SDS011;36361;38.954;-9.002;2023-02-01T05:21:36;17.88;;;11.93;;
50433;SDS011;36361;38.954;-9.002;2023-02-01T05:22:37;19.83;;;12.05;;
50433;SDS011;36361;38.954;-9.002;2023-02-01T05:23:38;18.13;;;11.85;;
50433;SDS011;36361;38.954;-9.002;2023-02-01T05:24:58;18.08;;;12.05;;
50433;SDS011;36361;38.954;-9.002;2023-02-01T05:26:00;17.90;;;11.52;;
50433;SDS011;36361;38.954;-9.002;2023-02-01T05:27:02;16.13;;;12.02;;
50433;SDS011;36361;38.954;-9.002;2023-02-01T05:28:03;17.55;;;12.60;;
50433;SDS011;36361;38.954;-9.002;2023-02-01T05:29:06;17.75;;;11.90;;
50433;SDS011;36361;38.954;-9.002;2023-02-01T05:30:08;20.55;;;11.77;;
50433;SDS011;36361;38.954;-9.002;2023-02-01T05:31:10;16.45;;;12.00;;
50433;SDS011;36361;38.954;-9.002;2023-02-01T05:32:12;18.27;;;11.93;;
50433;SDS011;36361;38.954;-9.002;2023-02-01T05:33:14;17.33;;;12.48;;
50433;SDS011;36361;38.954;-9.002;2023-02-01T05:34:16;17.88;;;12.68;;
50433;SDS011;36361;38.954;-9.002;2023-02-01T05:35:18;20.70;;;12.70;;
50433;SDS011;36361;38.954;-9.002;2023-02-01T05:36:20;19.42;;;12.82;;
50433;SDS011;36361;38.954;-9.002;2023-02-01T05:37:22;14.95;;;11.30;;
50433;SDS011;36361;38.954;-9.002;2023-02-01T05:38:24;17.00;;;11.68;;
50433;SDS011;36361;38.954;-9.002;2023-02-01T05:39:25;16.40;;;11.65;;
50433;SDS011;36361;38.954;-9.002;2023-02-01T05:40:27;19.35;;;12.95;;
50433;SDS011;36361;38.954;-9.002;2023-02-01T05:41:29;16.13;;;11.05;;
50433;SDS011;36361;38.954;-9.002;2023-02-01T05:42:31;17.63;;;12.57;;
50433;SDS011;36361;38.954;-9.002;2023-02-01T05:43:32;19.33;;;12.25;;
50433;SDS011;36361;38.954;-9.002;2023-02-01T05:44:40;16.55;;;11.50;;
50433;SDS011;36361;38.954;-9.002;2023-02-01T05:45:41;20.25;;;11.88;;
50433;SDS011;36361;38.954;-9.002;2023-02-01T05:46:45;18.08;;;12.15;;
50433;SDS011;36361;38.954;-9.002;2023-02-01T05:47:48;16.85;;;10.50;;
50433;SDS011;36361;38.954;-9.002;2023-02-01T05:48:49;15.88;;;12.18;;
50433;SDS011;36361;38.954;-9.002;2023-02-01T05:49:57;17.27;;;12.00;;
50433;SDS011;36361;38.954;-9.002;2023-02-01T05:50:59;19.60;;;12.05;;
50433;SDS011;36361;38.954;-9.002;2023-02-01T05:52:01;17.63;;;12.70;;
50433;SDS011;36361;38.954;-9.002;2023-02-01T05:53:03;17.48;;;12.18;;
50433;SDS011;36361;38.954;-9.002;2023-02-01T05:54:04;15.50;;;11.43;;
50433;SDS011;36361;38.954;-9.002;2023-02-01T05:55:05;16.15;;;12.00;;
50433;SDS011;36361;38.954;-9.002;2023-02-01T05:56:07;18.80;;;11.93;;
50433;SDS011;36361;38.954;-9.002;2023-02-01T05:57:09;17.30;;;11.52;;
50433;SDS011;36361;38.954;-9.002;2023-02-01T05:58:14;18.38;;;12.40;;
50433;SDS011;36361;38.954;-9.002;2023-02-01T05:59:16;17.25;;;11.57;;
50433;SDS011;36361;38.954;-9.002;2023-02-01T06:00:21;19.17;;;11.88;;
50433;SDS011;36361;38.954;-9.002;2023-02-01T06:01:24;19.77;;;13.18;;
50433;SDS011;36361;38.954;-9.002;2023-02-01T06:02:29;18.17;;;11.60;;
50433;SDS011;36361;38.954;-9.002;2023-02-01T06:03:30;18.08;;;11.80;;
50433;SDS011;36361;38.954;-9.002;2023-02-01T06:04:31;17.85;;;11.80;;
50433;SDS011;36361;38.954;-9.002;2023-02-01T06:05:33;16.90;;;11.93;;
50433;SDS011;36361;38.954;-9.002;2023-02-01T06:06:35;18.38;;;12.60;;
50433;SDS011;36361;38.954;-9.002;2023-02-01T06:07:40;20.40;;;11.80;;
50433;SDS011;36361;38.954;-9.002;2023-02-01T06:08:42;22.63;;;12.73;;
50433;SDS011;36361;38.954;-9.002;2023-02-01T06:09:43;17.92;;;13.48;;
50433;SDS011;36361;38.954;-9.002;2023-02-01T06:10:45;23.33;;;13.43;;
50433;SDS011;36361;38.954;-9.002;2023-02-01T06:11:47;18.95;;;11.73;;
50433;SDS011;36361;38.954;-9.002;2023-02-01T06:12:49;19.55;;;13.30;;
50433;SDS011;36361;38.954;-9.002;2023-02-01T06:13:51;19.40;;;13.15;;
50433;SDS011;36361;38.954;-9.002;2023-02-01T06:14:53;21.05;;;12.88;;
50433;SDS011;36361;38.954;-9.002;2023-02-01T06:15:54;20.33;;;13.15;;
50433;SDS011;36361;38.954;-9.002;2023-02-01T06:16:59;18.55;;;11.98;;
50433;SDS011;36361;38.954;-9.002;2023-02-01T06:18:04;20.67;;;12.43;;
50433;SDS011;36361;38.954;-9.002;2023-02-01T06:19:06;18.08;;;12.02;;
50433;SDS011;36361;38.954;-9.002;2023-02-01T06:20:09;20.67;;;13.10;;
50433;SDS011;36361;38.954;-9.002;2023-02-01T06:21:28;19.58;;;12.73;;
50433;SDS011;36361;38.954;-9.002;2023-02-01T06:22:29;17.67;;;12.13;;
50433;SDS011;36361;38.954;-9.002;2023-02-01T06:23:31;20.58;;;12.48;;
50433;SDS011;36361;38.954;-9.002;2023-02-01T06:24:32;15.77;;;11.27;;
50433;SDS011;36361;38.954;-9.002;2023-02-01T06:25:34;16.50;;;10.68;;
50433;SDS011;36361;38.954;-9.002;2023-02-01T06:26:38;15.85;;;10.90;;
50433;SDS011;36361;38.954;-9.002;2023-02-01T06:27:40;20.17;;;12.32;;
50433;SDS011;36361;38.954;-9.002;2023-02-01T06:28:42;19.50;;;12.38;;
50433;SDS011;36361;38.954;-9.002;2023-02-01T06:29:44;17.67;;;12.32;;
50433;SDS011;36361;38.954;-9.002;2023-02-01T06:30:46;20.45;;;12.57;;
50433;SDS011;36361;38.954;-9.002;2023-02-01T06:31:49;20.58;;;12.02;;
50433;SDS011;36361;38.954;-9.002;2023-02-01T06:32:51;18.88;;;12.82;;
50433;SDS011;36361;38.954;-9.002;2023-02-01T06:33:56;32.67;;;13.02;;
50433;SDS011;36361;38.954;-9.002;2023-02-01T06:34:58;23.23;;;13.63;;
50433;SDS011;36361;38.954;-9.002;2023-02-01T06:36:07;20.77;;;12.40;;
50433;SDS011;36361;38.954;-9.002;2023-02-01T06:37:12;18.95;;;13.68;;
50433;SDS011;36361;38.954;-9.002;2023-02-01T06:38:15;18.08;;;13.00;;
50433;SDS011;36361;38.954;-9.002;2023-02-01T06:39:17;22.55;;;13.20;;
50433;SDS011;36361;38.954;-9.002;2023-02-01T06:40:21;17.90;;;12.23;;
50433;SDS011;36361;38.954;-9.002;2023-02-01T06:41:24;20.77;;;12.88;;
50433;SDS011;36361;38.954;-9.002;2023-02-01T06:42:29;21.73;;;12.82;;
50433;SDS011;36361;38.954;-9.002;2023-02-01T06:43:32;18.05;;;12.75;;
50433;SDS011;36361;38.954;-9.002;2023-02-01T06:44:34;20.73;;;12.70;;